sensor_id;sensor_type;location;lat;lon;timestamp;P1;durP1;ratioP1;P2;durP2;ratioP2
16430;SDS011;8325;49.284;7.238;2022-08-30T04:01:23;3.60;;;2.50;;
16430;SDS011;8325;49.284;7.238;2022-08-30T04:05:35;4.00;;;2.67;;
16430;SDS011;8325;49.284;7.238;2022-08-30T04:09:46;4.95;;;2.70;;
16430;SDS011;8325;49.284;7.238;2022-08-30T04:13:58;5.30;;;2.90;;
16430;SDS011;8325;49.284;7.238;2022-08-30T04:18:09;4.18;;;2.80;;
16430;SDS011;8325;49.284;7.238;2022-08-30T04:22:21;3.90;;;2.55;;
16430;SDS011;8325;49.284;7.238;2022-08-30T04:26:32;6.35;;;3.00;;
16430;SDS011;8325;49.284;7.238;2022-08-30T04:30:44;2.92;;;2.60;;
16430;SDS011;8325;49.284;7.238;2022-08-30T04:34:56;3.83;;;2.85;;
16430;SDS011;8325;49.284;7.238;2022-08-30T04:39:08;4.10;;;2.38;;
16430;SDS011;8325;49.284;7.238;2022-08-30T04:43:20;7.40;;;2.90;;
16430;SDS011;8325;49.284;7.238;2022-08-30T04:47:32;5.95;;;2.95;;
16430;SDS011;8325;49.284;7.238;2022-08-30T04:51:43;5.05;;;2.70;;
16430;SDS011;8325;49.284;7.238;2022-08-30T04:55:55;3.67;;;2.78;;
16430;SDS011;8325;49.284;7.238;2022-08-30T05:00:09;5.63;;;2.50;;
16430;SDS011;8325;49.284;7.238;2022-08-30T05:04:22;5.18;;;2.85;;
16430;SDS011;8325;49.284;7.238;2022-08-30T05:08:33;4.07;;;2.42;;
16430;SDS011;8325;49.284;7.238;2022-08-30T05:12:45;4.45;;;3.10;;
16430;SDS011;8325;49.284;7.238;2022-08-30T05:16:57;5.05;;;2.63;;
16430;SDS011;8325;49.284;7.238;2022-08-30T05:21:09;4.85;;;2.72;;
16430;SDS011;8325;49.284;7.238;2022-08-30T05:25:27;4.78;;;3.10;;
16430;SDS011;8325;49.284;7.238;2022-08-30T05:29:40;3.88;;;2.88;;
16430;SDS011;8325;49.284;7.238;2022-08-30T05:33:52;6.07;;;2.65;;
16430;SDS011;8325;49.284;7.238;2022-08-30T05:38:05;3.17;;;2.80;;
16430;SDS011;8325;49.284;7.238;2022-08-30T05:42:17;3.83;;;2.88;;
16430;SDS011;8325;49.284;7.238;2022-08-30T05:46:29;4.10;;;2.60;;
16430;SDS011;8325;49.284;7.238;2022-08-30T05:50:48;4.45;;;2.83;;
16430;SDS011;8325;49.284;7.238;2022-08-30T05:54:59;4.78;;;2.75;;
16430;SDS011;8325;49.284;7.238;2022-08-30T05:59:14;4.38;;;2.72;;
16430;SDS011;8325;49.284;7.238;2022-08-30T06:03:26;3.83;;;2.50;;
16430;SDS011;8325;49.284;7.238;2022-08-30T06:07:38;4.07;;;2.60;;
16430;SDS011;8325;49.284;7.238;2022-08-30T06:11:49;4.70;;;2.42;;
16430;SDS011;8325;49.284;7.238;2022-08-30T06:16:01;4.20;;;2.45;;
16430;SDS011;8325;49.284;7.238;2022-08-30T06:20:13;5.53;;;2.72;;
16430;SDS011;8325;49.284;7.238;2022-08-30T06:24:24;2.58;;;2.20;;
16430;SDS011;8325;49.284;7.238;2022-08-30T06:28:56;4.45;;;2.38;;
16430;SDS011;8325;49.284;7.238;2022-08-30T06:33:09;3.20;;;2.30;;
16430;SDS011;8325;49.284;7.238;2022-08-30T06:37:20;3.67;;;2.50;;
16430;SDS011;8325;49.284;7.238;2022-08-30T06:41:40;6.07;;;2.70;;
16430;SDS011;8325;49.284;7.238;2022-08-30T06:46:08;3.30;;;2.53;;
16430;SDS011;8325;49.284;7.238;2022-08-30T06:50:21;2.83;;;2.47;;
16430;SDS011;8325;49.284;7.238;2022-08-30T06:54:33;3.92;;;2.63;;
16430;SDS011;8325;49.284;7.238;2022-08-30T06:58:45;2.40;;;2.17;;
16430;SDS011;8325;49.284;7.238;2022-08-30T07:02:57;2.92;;;2.50;;
16430;SDS011;8325;49.284;7.238;2022-08-30T07:07:09;7.28;;;2.40;;
16430;SDS011;8325;49.284;7.238;2022-08-30T07:11:25;3.13;;;2.40;;
16430;SDS011;8325;49.284;7.238;2022-08-30T07:15:39;4.60;;;2.90;;
16430;SDS011;8325;49.284;7.238;2022-08-30T07:19:55;4.43;;;2.40;;
16430;SDS011;8325;49.284;7.238;2022-08-30T07:24:06;5.00;;;2.42;;
16430;SDS011;8325;49.284;7.238;2022-08-30T07:28:20;4.13;;;2.30;;
16430;SDS011;8325;49.284;7.238;2022-08-30T07:32:31;3.65;;;2.83;;
16430;SDS011;8325;49.284;7.238;2022-08-30T07:36:43;6.00;;;2.60;;
16430;SDS011;8325;49.284;7.238;2022-08-30T07:40:54;4.43;;;2.30;;
16430;SDS011;8325;49.284;7.238;2022-08-30T07:45:09;5.07;;;2.22;;
16430;SDS011;8325;49.284;7.238;2022-08-30T07:49:21;3.13;;;2.58;;
16430;SDS011;8325;49.284;7.238;2022-08-30T07:53:33;8.73;;;2.60;;
16430;SDS011;8325;49.284;7.238;2022-08-30T07:57:45;15.55;;;2.90;;
16430;SDS011;8325;49.284;7.238;2022-08-30T08:01:57;5.07;;;2.55;;
16430;SDS011;8325;49.284;7.238;2022-08-30T08:06:09;5.18;;;2.65;;
16430;SDS011;8325;49.284;7.238;2022-08-30T08:10:22;7.90;;;2.50;;
16430;SDS011;8325;49.284;7.238;2022-08-30T08:14:34;4.22;;;2.42;;
16430;SDS011;8325;49.284;7.238;2022-08-30T08:18:46;4.90;;;2.40;;
16430;SDS011;8325;49.284;7.238;2022-08-30T08:22:58;6.53;;;2.47;;
16430;SDS011;8325;49.284;7.238;2022-08-30T08:27:09;5.97;;;2.38;;
16430;SDS011;8325;49.284;7.238;2022-08-30T08:31:22;4.57;;;2.45;;
16430;SDS011;8325;49.284;7.238;2022-08-30T08:35:37;5.93;;;2.67;;
16430;SDS011;8325;49.284;7.238;2022-08-30T08:39:49;7.70;;;2.63;;
16430;SDS011;8325;49.284;7.238;2022-08-30T08:44:04;5.57;;;3.00;;
16430;SDS011;8325;49.284;7.238;2022-08-30T08:53:11;4.20;;;2.72;;
16430;SDS011;8325;49.284;7.238;2022-08-30T08:58:00;7.10;;;3.30;;
16430;SDS011;8325;49.284;7.238;2022-08-30T09:02:18;3.28;;;2.50;;
16430;SDS011;8325;49.284;7.238;2022-08-30T09:10:57;7.57;;;2.80;;
16430;SDS011;8325;49.284;7.238;2022-08-30T09:15:22;4.20;;;2.97;;
16430;SDS011;8325;49.284;7.238;2022-08-30T09:23:58;5.35;;;3.15;;
16430;SDS011;8325;49.284;7.238;2022-08-30T09:28:14;5.20;;;2.60;;
16430;SDS011;8325;49.284;7.238;2022-08-30T09:32:37;3.75;;;2.63;;
16430;SDS011;8325;49.284;7.238;2022-08-30T09:36:51;3.63;;;3.15;;
16430;SDS011;8325;49.284;7.238;2022-08-30T09:45:40;4.65;;;2.78;;
16430;SDS011;8325;49.284;7.238;2022-08-30T09:50:08;5.22;;;3.15;;
16430;SDS011;8325;49.284;7.238;2022-08-30T09:54:20;3.88;;;2.80;;
16430;SDS011;8325;49.284;7.238;2022-08-30T10:08:01;5.95;;;3.30;;
16430;SDS011;8325;49.284;7.238;2022-08-30T10:12:44;4.50;;;2.97;;
16430;SDS011;8325;49.284;7.238;2022-08-30T10:17:01;4.45;;;3.10;;
16430;SDS011;8325;49.284;7.238;2022-08-30T10:21:27;4.65;;;3.22;;
16430;SDS011;8325;49.284;7.238;2022-08-30T10:30:41;4.70;;;3.33;;
16430;SDS011;8325;49.284;7.238;2022-08-30T10:35:12;4.53;;;3.20;;
16430;SDS011;8325;49.284;7.238;2022-08-30T10:39:35;6.18;;;3.53;;
16430;SDS011;8325;49.284;7.238;2022-08-30T10:48:15;7.97;;;3.70;;
16430;SDS011;8325;49.284;7.238;2022-08-30T10:52:35;6.03;;;3.38;;
16430;SDS011;8325;49.284;7.238;2022-08-30T10:56:56;5.05;;;3.47;;
16430;SDS011;8325;49.284;7.238;2022-08-30T11:01:16;4.38;;;3.25;;
16430;SDS011;8325;49.284;7.238;2022-08-30T11:05:58;4.72;;;3.42;;
16430;SDS011;8325;49.284;7.238;2022-08-30T11:14:39;4.38;;;3.92;;
16430;SDS011;8325;49.284;7.238;2022-08-30T11:18:54;4.90;;;3.90;;
16430;SDS011;8325;49.284;7.238;2022-08-30T11:27:38;7.28;;;3.85;;
16430;SDS011;8325;49.284;7.238;2022-08-30T11:31:50;4.35;;;3.70;;
16430;SDS011;8325;49.284;7.238;2022-08-30T11:36:03;6.13;;;3.90;;
16430;SDS011;8325;49.284;7.238;2022-08-30T11:44:30;5.90;;;4.72;;
16430;SDS011;8325;49.284;7.238;2022-08-30T11:48:44;6.97;;;4.22;;
16430;SDS011;8325;49.284;7.238;2022-08-30T12:07:54;5.22;;;4.18;;
16430;SDS011;8325;49.284;7.238;2022-08-30T12:16:23;5.97;;;5.03;;
16430;SDS011;8325;49.284;7.238;2022-08-30T12:20:47;5.72;;;4.68;;
16430;SDS011;8325;49.284;7.238;2022-08-30T12:25:00;5.40;;;4.53;;
16430;SDS011;8325;49.284;7.238;2022-08-30T12:29:16;5.03;;;4.53;;
16430;SDS011;8325;49.284;7.238;2022-08-30T12:33:39;5.50;;;4.85;;
16430;SDS011;8325;49.284;7.238;2022-08-30T12:37:59;7.30;;;4.55;;
16430;SDS011;8325;49.284;7.238;2022-08-30T12:42:24;6.90;;;4.38;;
16430;SDS011;8325;49.284;7.238;2022-08-30T12:46:41;4.57;;;4.03;;
16430;SDS011;8325;49.284;7.238;2022-08-30T12:50:56;5.70;;;4.50;;
16430;SDS011;8325;49.284;7.238;2022-08-30T12:55:17;5.00;;;4.50;;
16430;SDS011;8325;49.284;7.238;2022-08-30T13:03:55;7.03;;;4.70;;
16430;SDS011;8325;49.284;7.238;2022-08-30T13:08:10;5.45;;;4.95;;
16430;SDS011;8325;49.284;7.238;2022-08-30T13:12:29;5.30;;;4.90;;
16430;SDS011;8325;49.284;7.238;2022-08-30T13:16:41;5.05;;;4.55;;
16430;SDS011;8325;49.284;7.238;2022-08-30T13:21:09;5.68;;;5.05;;
16430;SDS011;8325;49.284;7.238;2022-08-30T13:25:39;5.18;;;4.68;;
16430;SDS011;8325;49.284;7.238;2022-08-30T13:29:51;5.70;;;5.03;;
16430;SDS011;8325;49.284;7.238;2022-08-30T13:34:03;5.65;;;5.15;;
16430;SDS011;8325;49.284;7.238;2022-08-30T13:38:15;5.57;;;5.03;;
16430;SDS011;8325;49.284;7.238;2022-08-30T13:42:27;5.50;;;5.00;;
16430;SDS011;8325;49.284;7.238;2022-08-30T13:46:44;5.40;;;4.90;;
16430;SDS011;8325;49.284;7.238;2022-08-30T13:51:05;5.28;;;4.88;;
16430;SDS011;8325;49.284;7.238;2022-08-30T13:55:16;5.55;;;5.00;;
16430;SDS011;8325;49.284;7.238;2022-08-30T13:59:28;5.47;;;5.05;;
16430;SDS011;8325;49.284;7.238;2022-08-30T14:03:43;5.53;;;5.03;;
16430;SDS011;8325;49.284;7.238;2022-08-30T14:08:16;5.65;;;5.13;;
16430;SDS011;8325;49.284;7.238;2022-08-30T14:12:49;5.63;;;5.03;;
16430;SDS011;8325;49.284;7.238;2022-08-30T14:17:03;6.50;;;4.80;;
16430;SDS011;8325;49.284;7.238;2022-08-30T14:21:15;6.75;;;5.28;;
16430;SDS011;8325;49.284;7.238;2022-08-30T14:25:27;6.40;;;5.13;;
16430;SDS011;8325;49.284;7.238;2022-08-30T14:29:39;5.63;;;4.97;;
16430;SDS011;8325;49.284;7.238;2022-08-30T14:33:50;5.20;;;4.70;;
16430;SDS011;8325;49.284;7.238;2022-08-30T14:38:02;6.05;;;4.95;;
16430;SDS011;8325;49.284;7.238;2022-08-30T14:42:16;5.30;;;4.80;;
16430;SDS011;8325;49.284;7.238;2022-08-30T14:46:29;5.03;;;4.53;;
16430;SDS011;8325;49.284;7.238;2022-08-30T14:50:40;5.45;;;4.95;;
16430;SDS011;8325;49.284;7.238;2022-08-30T14:54:52;6.05;;;4.70;;
16430;SDS011;8325;49.284;7.238;2022-08-30T14:59:09;5.47;;;4.97;;
16430;SDS011;8325;49.284;7.238;2022-08-30T15:03:23;5.22;;;4.57;;
16430;SDS011;8325;49.284;7.238;2022-08-30T15:07:36;5.25;;;4.75;;
16430;SDS011;8325;49.284;7.238;2022-08-30T15:11:47;5.55;;;4.95;;
16430;SDS011;8325;49.284;7.238;2022-08-30T15:16:00;5.35;;;4.85;;
16430;SDS011;8325;49.284;7.238;2022-08-30T15:20:13;7.55;;;4.95;;
16430;SDS011;8325;49.284;7.238;2022-08-30T15:24:29;6.53;;;4.53;;
16430;SDS011;8325;49.284;7.238;2022-08-30T15:28:41;6.90;;;5.15;;
16430;SDS011;8325;49.284;7.238;2022-08-30T15:32:52;7.53;;;4.80;;
16430;SDS011;8325;49.284;7.238;2022-08-30T15:37:04;6.53;;;4.90;;
16430;SDS011;8325;49.284;7.238;2022-08-30T15:41:17;6.22;;;4.57;;
16430;SDS011;8325;49.284;7.238;2022-08-30T15:45:29;5.22;;;4.72;;
16430;SDS011;8325;49.284;7.238;2022-08-30T15:49:41;5.57;;;5.00;;
16430;SDS011;8325;49.284;7.238;2022-08-30T15:53:53;5.75;;;4.35;;
16430;SDS011;8325;49.284;7.238;2022-08-30T15:58:04;4.95;;;4.45;;
16430;SDS011;8325;49.284;7.238;2022-08-30T16:02:16;6.32;;;4.88;;
16430;SDS011;8325;49.284;7.238;2022-08-30T16:06:29;5.22;;;4.40;;
16430;SDS011;8325;49.284;7.238;2022-08-30T16:10:44;5.47;;;4.30;;
16430;SDS011;8325;49.284;7.238;2022-08-30T16:14:58;4.95;;;4.45;;
16430;SDS011;8325;49.284;7.238;2022-08-30T16:19:09;5.70;;;5.00;;
16430;SDS011;8325;49.284;7.238;2022-08-30T16:23:21;4.55;;;4.15;;
16430;SDS011;8325;49.284;7.238;2022-08-30T16:27:32;7.72;;;5.25;;
16430;SDS011;8325;49.284;7.238;2022-08-30T16:31:44;8.77;;;4.68;;
16430;SDS011;8325;49.284;7.238;2022-08-30T16:35:57;4.95;;;4.50;;
16430;SDS011;8325;49.284;7.238;2022-08-30T16:40:09;5.97;;;4.53;;
16430;SDS011;8325;49.284;7.238;2022-08-30T16:44:21;7.38;;;4.72;;
16430;SDS011;8325;49.284;7.238;2022-08-30T16:48:40;4.97;;;4.55;;
16430;SDS011;8325;49.284;7.238;2022-08-30T16:52:53;5.03;;;4.25;;
16430;SDS011;8325;49.284;7.238;2022-08-30T16:57:05;5.10;;;4.22;;
16430;SDS011;8325;49.284;7.238;2022-08-30T17:01:20;4.68;;;4.15;;
16430;SDS011;8325;49.284;7.238;2022-08-30T17:05:34;4.65;;;4.13;;
16430;SDS011;8325;49.284;7.238;2022-08-30T17:09:47;5.43;;;4.10;;
16430;SDS011;8325;49.284;7.238;2022-08-30T17:13:59;5.28;;;4.00;;
16430;SDS011;8325;49.284;7.238;2022-08-30T17:18:12;5.80;;;4.30;;
16430;SDS011;8325;49.284;7.238;2022-08-30T17:22:25;3.95;;;3.55;;
16430;SDS011;8325;49.284;7.238;2022-08-30T17:26:36;4.75;;;3.92;;
16430;SDS011;8325;49.284;7.238;2022-08-30T17:30:48;5.22;;;4.45;;
16430;SDS011;8325;49.284;7.238;2022-08-30T17:35:01;5.30;;;4.00;;
16430;SDS011;8325;49.284;7.238;2022-08-30T17:39:16;4.80;;;4.03;;
16430;SDS011;8325;49.284;7.238;2022-08-30T17:43:28;5.50;;;3.65;;
16430;SDS011;8325;49.284;7.238;2022-08-30T17:47:40;5.05;;;3.70;;
16430;SDS011;8325;49.284;7.238;2022-08-30T17:51:52;4.55;;;3.65;;
16430;SDS011;8325;49.284;7.238;2022-08-30T17:56:08;5.30;;;3.53;;
16430;SDS011;8325;49.284;7.238;2022-08-30T18:00:20;4.57;;;3.38;;
16430;SDS011;8325;49.284;7.238;2022-08-30T18:04:32;4.97;;;3.50;;
16430;SDS011;8325;49.284;7.238;2022-08-30T18:08:43;3.80;;;3.25;;
16430;SDS011;8325;49.284;7.238;2022-08-30T18:12:55;4.60;;;3.20;;
16430;SDS011;8325;49.284;7.238;2022-08-30T18:17:07;4.82;;;3.67;;
16430;SDS011;8325;49.284;7.238;2022-08-30T18:21:19;3.75;;;3.40;;
16430;SDS011;8325;49.284;7.238;2022-08-30T18:25:32;3.80;;;3.10;;
16430;SDS011;8325;49.284;7.238;2022-08-30T18:29:44;4.38;;;3.13;;
16430;SDS011;8325;49.284;7.238;2022-08-30T18:33:58;4.00;;;3.00;;
16430;SDS011;8325;49.284;7.238;2022-08-30T18:38:16;4.00;;;3.03;;
16430;SDS011;8325;49.284;7.238;2022-08-30T18:42:36;4.60;;;3.15;;
16430;SDS011;8325;49.284;7.238;2022-08-30T18:46:51;3.08;;;2.78;;
16430;SDS011;8325;49.284;7.238;2022-08-30T18:51:11;3.13;;;2.83;;
16430;SDS011;8325;49.284;7.238;2022-08-30T18:55:26;3.60;;;3.15;;
16430;SDS011;8325;49.284;7.238;2022-08-30T18:59:38;3.28;;;2.90;;
16430;SDS011;8325;49.284;7.238;2022-08-30T19:03:53;3.50;;;3.00;;
16430;SDS011;8325;49.284;7.238;2022-08-30T19:08:05;6.25;;;2.80;;
16430;SDS011;8325;49.284;7.238;2022-08-30T19:12:17;3.35;;;3.05;;
16430;SDS011;8325;49.284;7.238;2022-08-30T19:16:29;5.25;;;3.30;;
16430;SDS011;8325;49.284;7.238;2022-08-30T19:20:40;6.90;;;3.53;;
16430;SDS011;8325;49.284;7.238;2022-08-30T19:24:52;4.45;;;2.90;;
16430;SDS011;8325;49.284;7.238;2022-08-30T19:29:05;4.93;;;3.25;;
16430;SDS011;8325;49.284;7.238;2022-08-30T19:33:16;4.47;;;3.22;;
16430;SDS011;8325;49.284;7.238;2022-08-30T19:37:30;4.78;;;3.08;;
16430;SDS011;8325;49.284;7.238;2022-08-30T19:41:44;3.53;;;2.97;;
16430;SDS011;8325;49.284;7.238;2022-08-30T19:45:57;5.70;;;3.50;;
16430;SDS011;8325;49.284;7.238;2022-08-30T19:50:10;4.18;;;3.20;;
16430;SDS011;8325;49.284;7.238;2022-08-30T19:54:22;3.53;;;2.97;;
16430;SDS011;8325;49.284;7.238;2022-08-30T19:58:34;4.53;;;3.20;;
16430;SDS011;8325;49.284;7.238;2022-08-30T20:02:46;4.13;;;3.22;;
16430;SDS011;8325;49.284;7.238;2022-08-30T20:07:01;5.28;;;3.17;;
16430;SDS011;8325;49.284;7.238;2022-08-30T20:11:13;3.80;;;3.00;;
16430;SDS011;8325;49.284;7.238;2022-08-30T20:15:28;5.15;;;3.13;;
16430;SDS011;8325;49.284;7.238;2022-08-30T20:19:40;5.32;;;3.65;;
16430;SDS011;8325;49.284;7.238;2022-08-30T20:23:52;4.15;;;3.40;;
16430;SDS011;8325;49.284;7.238;2022-08-30T20:28:03;3.58;;;2.95;;
16430;SDS011;8325;49.284;7.238;2022-08-30T20:32:15;5.00;;;3.50;;
16430;SDS011;8325;49.284;7.238;2022-08-30T20:36:27;3.67;;;3.38;;
16430;SDS011;8325;49.284;7.238;2022-08-30T20:40:39;5.43;;;3.70;;
16430;SDS011;8325;49.284;7.238;2022-08-30T20:44:51;3.85;;;3.45;;
16430;SDS011;8325;49.284;7.238;2022-08-30T20:49:03;3.97;;;3.40;;
16430;SDS011;8325;49.284;7.238;2022-08-30T20:53:15;4.68;;;3.85;;
16430;SDS011;8325;49.284;7.238;2022-08-30T20:57:26;6.40;;;3.63;;
16430;SDS011;8325;49.284;7.238;2022-08-30T21:01:38;3.75;;;3.30;;
16430;SDS011;8325;49.284;7.238;2022-08-30T21:05:51;8.55;;;3.40;;
16430;SDS011;8325;49.284;7.238;2022-08-30T21:10:03;4.65;;;3.50;;
16430;SDS011;8325;49.284;7.238;2022-08-30T21:14:15;4.47;;;3.33;;
16430;SDS011;8325;49.284;7.238;2022-08-30T21:18:27;3.90;;;3.17;;
16430;SDS011;8325;49.284;7.238;2022-08-30T21:22:42;4.15;;;3.08;;
16430;SDS011;8325;49.284;7.238;2022-08-30T21:26:54;4.22;;;3.50;;
